sensor_id;sensor_type;location;lat;lon;timestamp;pressure;altitude;pressure_sealevel;temperature;humidity
2675;BME280;1347;42.122;24.746;2022-12-24T07:25:11;99492.41;;;1.99;100.00
2675;BME280;1347;42.122;24.746;2022-12-24T07:27:38;99480.03;;;2.15;100.00
2675;BME280;1347;42.122;24.746;2022-12-24T07:30:06;99475.94;;;2.35;100.00
2675;BME280;1347;42.122;24.746;2022-12-24T07:32:33;99480.59;;;2.51;100.00
2675;BME280;1347;42.122;24.746;2022-12-24T07:35:00;99482.69;;;2.72;100.00
2675;BME280;1347;42.122;24.746;2022-12-24T07:37:27;99486.03;;;2.94;100.00
2675;BME280;1347;42.122;24.746;2022-12-24T07:39:54;99481.88;;;3.14;100.00
2675;BME280;1347;42.122;24.746;2022-12-24T07:42:22;99491.97;;;3.52;100.00
2675;BME280;1347;42.122;24.746;2022-12-24T07:44:50;99492.94;;;4.53;100.00
2675;BME280;1347;42.122;24.746;2022-12-24T07:47:17;99495.94;;;7.92;98.06
2675;BME280;1347;42.122;24.746;2022-12-24T07:49:44;99517.75;;;11.92;80.88
2675;BME280;1347;42.122;24.746;2022-12-24T07:52:10;99516.38;;;15.20;65.68
2675;BME280;1347;42.122;24.746;2022-12-24T07:54:37;99513.63;;;16.45;56.72
2675;BME280;1347;42.122;24.746;2022-12-24T07:57:04;99520.06;;;16.35;55.11
2675;BME280;1347;42.122;24.746;2022-12-24T07:59:33;99522.81;;;15.79;54.45
2675;BME280;1347;42.122;24.746;2022-12-24T08:02:00;99527.47;;;15.09;54.10
2675;BME280;1347;42.122;24.746;2022-12-24T08:04:27;99525.22;;;14.33;55.04
2675;BME280;1347;42.122;24.746;2022-12-24T08:06:56;99531.88;;;14.00;57.28
2675;BME280;1347;42.122;24.746;2022-12-24T08:09:23;99529.13;;;14.18;57.36
2675;BME280;1347;42.122;24.746;2022-12-24T08:11:50;99545.88;;;15.37;56.30
2675;BME280;1347;42.122;24.746;2022-12-24T08:14:17;99549.34;;;15.66;52.66
2675;BME280;1347;42.122;24.746;2022-12-24T08:16:46;99546.00;;;15.16;53.29
2675;BME280;1347;42.122;24.746;2022-12-24T08:19:12;99544.13;;;14.46;54.45
2675;BME280;1347;42.122;24.746;2022-12-24T08:21:39;99555.84;;;13.86;56.00
2675;BME280;1347;42.122;24.746;2022-12-24T08:24:06;99551.03;;;13.51;57.03
2675;BME280;1347;42.122;24.746;2022-12-24T08:26:33;99544.47;;;12.42;58.86
2675;BME280;1347;42.122;24.746;2022-12-24T08:29:00;99546.03;;;11.59;61.69
2675;BME280;1347;42.122;24.746;2022-12-24T08:31:27;99541.50;;;10.80;64.67
2675;BME280;1347;42.122;24.746;2022-12-24T08:33:56;99543.03;;;10.06;67.26
2675;BME280;1347;42.122;24.746;2022-12-24T08:36:22;99533.72;;;9.65;69.39
2675;BME280;1347;42.122;24.746;2022-12-24T08:38:49;99523.97;;;9.48;70.86
2675;BME280;1347;42.122;24.746;2022-12-24T08:41:16;99528.63;;;9.25;71.82
2675;BME280;1347;42.122;24.746;2022-12-24T08:43:43;99525.56;;;9.49;71.60
2675;BME280;1347;42.122;24.746;2022-12-24T08:46:10;99526.16;;;9.39;72.04
2675;BME280;1347;42.122;24.746;2022-12-24T08:48:37;99525.44;;;9.42;71.57
2675;BME280;1347;42.122;24.746;2022-12-24T08:51:07;99520.50;;;9.70;71.05
2675;BME280;1347;42.122;24.746;2022-12-24T08:53:34;99515.19;;;10.23;69.92
2675;BME280;1347;42.122;24.746;2022-12-24T08:56:01;99519.31;;;10.89;68.08
2675;BME280;1347;42.122;24.746;2022-12-24T08:58:29;99520.78;;;12.24;66.72
2675;BME280;1347;42.122;24.746;2022-12-24T09:00:56;99515.25;;;13.65;62.35
2675;BME280;1347;42.122;24.746;2022-12-24T09:03:23;99509.44;;;14.27;59.32
2675;BME280;1347;42.122;24.746;2022-12-24T09:05:50;99512.16;;;13.95;59.54
2675;BME280;1347;42.122;24.746;2022-12-24T09:08:19;99518.75;;;13.41;59.69
2675;BME280;1347;42.122;24.746;2022-12-24T09:10:46;99515.44;;;13.07;60.23
2675;BME280;1347;42.122;24.746;2022-12-24T09:13:13;99512.97;;;12.87;59.82
2675;BME280;1347;42.122;24.746;2022-12-24T09:15:40;99513.78;;;12.30;60.88
2675;BME280;1347;42.122;24.746;2022-12-24T09:18:07;99506.31;;;12.30;60.66
2675;BME280;1347;42.122;24.746;2022-12-24T09:20:35;99507.03;;;12.20;61.37
2675;BME280;1347;42.122;24.746;2022-12-24T09:23:02;99504.31;;;12.27;62.09
2675;BME280;1347;42.122;24.746;2022-12-24T09:25:30;99504.50;;;13.17;60.49
2675;BME280;1347;42.122;24.746;2022-12-24T09:27:57;99499.19;;;13.99;57.93
2675;BME280;1347;42.122;24.746;2022-12-24T09:30:24;99491.34;;;14.54;57.02
2675;BME280;1347;42.122;24.746;2022-12-24T09:32:51;99497.66;;;14.44;56.28
2675;BME280;1347;42.122;24.746;2022-12-24T09:35:18;99489.34;;;14.02;55.99
2675;BME280;1347;42.122;24.746;2022-12-24T09:37:45;99490.13;;;14.16;56.62
2675;BME280;1347;42.122;24.746;2022-12-24T09:40:19;99486.97;;;14.64;56.00
2675;BME280;1347;42.122;24.746;2022-12-24T09:42:52;99473.47;;;14.98;54.45
2675;BME280;1347;42.122;24.746;2022-12-24T09:45:23;99479.41;;;14.93;54.13
2675;BME280;1347;42.122;24.746;2022-12-24T09:47:56;99470.47;;;14.39;54.88
2675;BME280;1347;42.122;24.746;2022-12-24T09:50:33;99473.19;;;13.79;56.07
2675;BME280;1347;42.122;24.746;2022-12-24T09:53:14;99469.63;;;13.68;56.41
2675;BME280;1347;42.122;24.746;2022-12-24T09:55:46;99465.72;;;13.79;56.62
2675;BME280;1347;42.122;24.746;2022-12-24T09:58:20;99465.13;;;13.03;57.85
2675;BME280;1347;42.122;24.746;2022-12-24T10:00:48;99458.97;;;12.58;59.76
2675;BME280;1347;42.122;24.746;2022-12-24T10:03:17;99456.34;;;12.18;60.72
2675;BME280;1347;42.122;24.746;2022-12-24T10:05:53;99456.31;;;12.10;61.58
2675;BME280;1347;42.122;24.746;2022-12-24T10:08:28;99447.59;;;12.01;61.07
2675;BME280;1347;42.122;24.746;2022-12-24T10:11:01;99446.78;;;11.97;60.91
2675;BME280;1347;42.122;24.746;2022-12-24T10:13:42;99434.09;;;11.82;62.33
2675;BME280;1347;42.122;24.746;2022-12-24T10:16:19;99441.38;;;12.11;62.39
2675;BME280;1347;42.122;24.746;2022-12-24T10:18:55;99444.53;;;12.13;62.28
2675;BME280;1347;42.122;24.746;2022-12-24T10:21:31;99443.72;;;11.65;62.92
2675;BME280;1347;42.122;24.746;2022-12-24T10:24:05;99429.56;;;11.60;62.50
2675;BME280;1347;42.122;24.746;2022-12-24T10:26:37;99427.47;;;11.46;63.01
2675;BME280;1347;42.122;24.746;2022-12-24T10:29:15;99427.56;;;11.57;63.57
2675;BME280;1347;42.122;24.746;2022-12-24T10:31:51;99428.97;;;11.77;63.15
2675;BME280;1347;42.122;24.746;2022-12-24T10:34:21;99429.28;;;12.20;62.37
2675;BME280;1347;42.122;24.746;2022-12-24T10:36:49;99429.53;;;12.62;61.41
2675;BME280;1347;42.122;24.746;2022-12-24T10:39:18;99426.63;;;12.30;61.65
2675;BME280;1347;42.122;24.746;2022-12-24T10:41:47;99427.66;;;12.77;61.09
2675;BME280;1347;42.122;24.746;2022-12-24T10:44:19;99427.69;;;12.87;60.10
2675;BME280;1347;42.122;24.746;2022-12-24T10:46:47;99419.75;;;12.68;61.02
2675;BME280;1347;42.122;24.746;2022-12-24T10:49:15;99421.81;;;12.16;61.53
2675;BME280;1347;42.122;24.746;2022-12-24T10:51:46;99423.59;;;12.49;61.66
2675;BME280;1347;42.122;24.746;2022-12-24T10:54:17;99426.50;;;12.85;61.13
2675;BME280;1347;42.122;24.746;2022-12-24T10:56:46;99429.34;;;13.13;61.19
2675;BME280;1347;42.122;24.746;2022-12-24T10:59:28;99424.66;;;13.14;60.65
2675;BME280;1347;42.122;24.746;2022-12-24T11:01:57;99420.50;;;12.62;61.50
2675;BME280;1347;42.122;24.746;2022-12-24T11:04:26;99418.16;;;11.98;62.87
2675;BME280;1347;42.122;24.746;2022-12-24T11:06:56;99417.59;;;11.41;64.62
2675;BME280;1347;42.122;24.746;2022-12-24T11:09:25;99418.06;;;11.10;65.43
2675;BME280;1347;42.122;24.746;2022-12-24T11:11:54;99420.41;;;11.08;65.50
2675;BME280;1347;42.122;24.746;2022-12-24T11:14:21;99413.00;;;11.53;65.49
2675;BME280;1347;42.122;24.746;2022-12-24T11:16:52;99415.28;;;11.81;63.68
2675;BME280;1347;42.122;24.746;2022-12-24T11:19:28;99413.16;;;11.67;64.03
2675;BME280;1347;42.122;24.746;2022-12-24T11:22:01;99408.72;;;11.55;64.49
2675;BME280;1347;42.122;24.746;2022-12-24T11:24:31;99403.28;;;11.62;64.97
2675;BME280;1347;42.122;24.746;2022-12-24T11:27:22;99408.81;;;11.66;64.32
2675;BME280;1347;42.122;24.746;2022-12-24T11:29:50;99411.31;;;11.78;64.45
2675;BME280;1347;42.122;24.746;2022-12-24T11:32:19;99405.88;;;11.85;64.54
2675;BME280;1347;42.122;24.746;2022-12-24T11:34:47;99401.97;;;11.86;65.05
2675;BME280;1347;42.122;24.746;2022-12-24T11:37:17;99397.31;;;11.94;64.87
2675;BME280;1347;42.122;24.746;2022-12-24T11:39:49;99392.94;;;11.86;64.67
2675;BME280;1347;42.122;24.746;2022-12-24T11:42:27;99383.94;;;11.89;65.62
2675;BME280;1347;42.122;24.746;2022-12-24T11:44:58;99392.00;;;12.19;65.04
2675;BME280;1347;42.122;24.746;2022-12-24T11:47:36;99390.16;;;12.44;64.78
2675;BME280;1347;42.122;24.746;2022-12-24T11:50:25;99395.72;;;12.54;63.96
2675;BME280;1347;42.122;24.746;2022-12-24T11:53:02;99386.78;;;12.75;62.62
2675;BME280;1347;42.122;24.746;2022-12-24T11:55:41;99399.69;;;12.64;63.33
2675;BME280;1347;42.122;24.746;2022-12-24T11:58:19;99396.13;;;12.57;63.57
2675;BME280;1347;42.122;24.746;2022-12-24T12:00:50;99394.97;;;12.65;63.93
2675;BME280;1347;42.122;24.746;2022-12-24T12:03:30;99386.78;;;12.72;63.23
2675;BME280;1347;42.122;24.746;2022-12-24T12:05:59;99381.59;;;12.56;63.57
2675;BME280;1347;42.122;24.746;2022-12-24T12:08:28;99379.63;;;12.57;62.87
2675;BME280;1347;42.122;24.746;2022-12-24T12:10:57;99380.72;;;12.38;63.52
2675;BME280;1347;42.122;24.746;2022-12-24T12:13:28;99381.38;;;12.17;64.65
2675;BME280;1347;42.122;24.746;2022-12-24T12:16:06;99393.53;;;12.16;64.98
2675;BME280;1347;42.122;24.746;2022-12-24T12:18:41;99386.84;;;12.10;64.51
2675;BME280;1347;42.122;24.746;2022-12-24T12:21:13;99381.66;;;11.98;64.74
2675;BME280;1347;42.122;24.746;2022-12-24T12:23:46;99386.22;;;11.83;65.59
2675;BME280;1347;42.122;24.746;2022-12-24T12:26:18;99376.94;;;11.98;65.18
2675;BME280;1347;42.122;24.746;2022-12-24T12:28:50;99380.88;;;12.01;65.50
2675;BME280;1347;42.122;24.746;2022-12-24T12:31:22;99382.44;;;12.02;64.68
2675;BME280;1347;42.122;24.746;2022-12-24T12:33:56;99380.84;;;11.97;65.15
2675;BME280;1347;42.122;24.746;2022-12-24T12:36:31;99381.66;;;11.98;65.18
2675;BME280;1347;42.122;24.746;2022-12-24T12:38:59;99376.94;;;12.02;65.30
2675;BME280;1347;42.122;24.746;2022-12-24T12:41:34;99369.50;;;12.02;65.49
2675;BME280;1347;42.122;24.746;2022-12-24T12:47:29;99372.75;;;11.67;66.49
2675;BME280;1347;42.122;24.746;2022-12-24T12:50:06;99377.84;;;11.65;67.05
2675;BME280;1347;42.122;24.746;2022-12-24T12:52:45;99379.03;;;11.68;67.00
2675;BME280;1347;42.122;24.746;2022-12-24T12:55:24;99378.16;;;11.60;67.83
2675;BME280;1347;42.122;24.746;2022-12-24T12:57:56;99372.38;;;11.69;68.12
2675;BME280;1347;42.122;24.746;2022-12-24T13:00:26;99373.53;;;11.68;68.25
2675;BME280;1347;42.122;24.746;2022-12-24T13:03:09;99379.28;;;11.49;68.16
2675;BME280;1347;42.122;24.746;2022-12-24T13:06:21;99377.22;;;11.42;68.45
2675;BME280;1347;42.122;24.746;2022-12-24T13:09:06;99382.97;;;11.26;68.85
2675;BME280;1347;42.122;24.746;2022-12-24T13:11:50;99380.25;;;11.30;68.81
2675;BME280;1347;42.122;24.746;2022-12-24T13:14:46;99383.44;;;11.35;69.56
2675;BME280;1347;42.122;24.746;2022-12-24T13:20:19;99397.59;;;11.37;69.32
2675;BME280;1347;42.122;24.746;2022-12-24T13:22:55;99396.38;;;11.35;69.91
2675;BME280;1347;42.122;24.746;2022-12-24T13:25:27;99406.56;;;11.34;69.87
2675;BME280;1347;42.122;24.746;2022-12-24T13:27:56;99407.34;;;11.35;69.88
2675;BME280;1347;42.122;24.746;2022-12-24T13:30:38;99410.53;;;11.37;69.76
2675;BME280;1347;42.122;24.746;2022-12-24T13:33:08;99414.13;;;11.44;69.88
2675;BME280;1347;42.122;24.746;2022-12-24T13:35:38;99415.53;;;11.31;70.74
2675;BME280;1347;42.122;24.746;2022-12-24T13:38:39;99412.75;;;11.24;70.85
2675;BME280;1347;42.122;24.746;2022-12-24T13:44:26;99416.22;;;11.18;71.14
2675;BME280;1347;42.122;24.746;2022-12-24T13:47:00;99420.13;;;11.20;71.24
2675;BME280;1347;42.122;24.746;2022-12-24T13:49:32;99417.66;;;11.08;71.54
2675;BME280;1347;42.122;24.746;2022-12-24T13:52:20;99412.06;;;10.97;72.46
2675;BME280;1347;42.122;24.746;2022-12-24T13:55:04;99417.56;;;11.01;72.66
2675;BME280;1347;42.122;24.746;2022-12-24T13:57:36;99422.25;;;10.97;72.37
2675;BME280;1347;42.122;24.746;2022-12-24T14:00:06;99420.59;;;10.89;72.83
2675;BME280;1347;42.122;24.746;2022-12-24T14:02:38;99423.28;;;10.85;73.00
2675;BME280;1347;42.122;24.746;2022-12-24T14:05:17;99416.13;;;10.77;73.67
2675;BME280;1347;42.122;24.746;2022-12-24T14:07:47;99419.00;;;10.88;73.15
2675;BME280;1347;42.122;24.746;2022-12-24T14:10:21;99420.44;;;10.78;73.51
2675;BME280;1347;42.122;24.746;2022-12-24T14:12:50;99420.19;;;10.57;74.62
2675;BME280;1347;42.122;24.746;2022-12-24T14:18:24;99418.88;;;10.47;74.74
2675;BME280;1347;42.122;24.746;2022-12-24T14:20:53;99421.72;;;10.28;75.86
2675;BME280;1347;42.122;24.746;2022-12-24T14:23:29;99426.09;;;10.32;76.50
2675;BME280;1347;42.122;24.746;2022-12-24T14:25:59;99416.94;;;10.21;76.74
2675;BME280;1347;42.122;24.746;2022-12-24T14:28:30;99421.84;;;10.35;76.21
2675;BME280;1347;42.122;24.746;2022-12-24T14:31:00;99417.16;;;10.13;76.82
2675;BME280;1347;42.122;24.746;2022-12-24T14:33:28;99417.28;;;10.20;76.38
2675;BME280;1347;42.122;24.746;2022-12-24T14:35:55;99411.63;;;10.09;77.01
2675;BME280;1347;42.122;24.746;2022-12-24T14:38:22;99416.72;;;10.07;76.88
2675;BME280;1347;42.122;24.746;2022-12-24T14:40:54;99415.78;;;10.00;77.73
2675;BME280;1347;42.122;24.746;2022-12-24T14:43:38;99425.38;;;9.86;77.99
2675;BME280;1347;42.122;24.746;2022-12-24T14:46:14;99425.19;;;9.76;79.06
2675;BME280;1347;42.122;24.746;2022-12-24T14:48:47;99420.19;;;9.81;79.10
2675;BME280;1347;42.122;24.746;2022-12-24T14:51:20;99415.44;;;9.78;79.17
2675;BME280;1347;42.122;24.746;2022-12-24T14:54:08;99421.72;;;9.79;79.45
2675;BME280;1347;42.122;24.746;2022-12-24T14:56:39;99430.44;;;9.84;79.52
2675;BME280;1347;42.122;24.746;2022-12-24T14:59:15;99427.25;;;9.82;79.50
2675;BME280;1347;42.122;24.746;2022-12-24T15:01:42;99433.09;;;9.81;79.82
2675;BME280;1347;42.122;24.746;2022-12-24T15:04:16;99438.75;;;9.69;80.90
2675;BME280;1347;42.122;24.746;2022-12-24T15:06:46;99438.19;;;9.59;81.29
2675;BME280;1347;42.122;24.746;2022-12-24T15:09:18;99429.34;;;9.66;80.43
2675;BME280;1347;42.122;24.746;2022-12-24T15:11:47;99426.97;;;9.65;80.83
2675;BME280;1347;42.122;24.746;2022-12-24T15:14:17;99430.44;;;9.62;81.04
2675;BME280;1347;42.122;24.746;2022-12-24T15:16:51;99434.75;;;9.63;81.03
2675;BME280;1347;42.122;24.746;2022-12-24T15:19:22;99440.50;;;9.57;81.07
2675;BME280;1347;42.122;24.746;2022-12-24T15:21:50;99435.63;;;9.47;82.06
2675;BME280;1347;42.122;24.746;2022-12-24T15:24:25;99442.69;;;9.48;82.11
2675;BME280;1347;42.122;24.746;2022-12-24T15:26:53;99448.97;;;9.49;82.54
2675;BME280;1347;42.122;24.746;2022-12-24T15:29:24;99453.59;;;9.45;82.58
2675;BME280;1347;42.122;24.746;2022-12-24T15:31:52;99463.75;;;9.44;82.55
2675;BME280;1347;42.122;24.746;2022-12-24T15:34:25;99461.38;;;9.43;82.37
2675;BME280;1347;42.122;24.746;2022-12-24T15:37:00;99458.88;;;9.34;82.24
2675;BME280;1347;42.122;24.746;2022-12-24T15:39:28;99461.66;;;9.38;82.79
2675;BME280;1347;42.122;24.746;2022-12-24T15:41:55;99464.63;;;9.29;83.21
2675;BME280;1347;42.122;24.746;2022-12-24T15:44:48;99468.22;;;9.33;83.04
2675;BME280;1347;42.122;24.746;2022-12-24T15:47:26;99465.84;;;9.32;83.28
2675;BME280;1347;42.122;24.746;2022-12-24T15:49:55;99465.72;;;9.25;83.32
2675;BME280;1347;42.122;24.746;2022-12-24T15:52:23;99466.50;;;9.25;83.89
2675;BME280;1347;42.122;24.746;2022-12-24T15:54:51;99464.84;;;9.20;83.69
2675;BME280;1347;42.122;24.746;2022-12-24T15:57:23;99469.44;;;9.16;83.71
2675;BME280;1347;42.122;24.746;2022-12-24T15:59:54;99482.19;;;9.28;83.75
2675;BME280;1347;42.122;24.746;2022-12-24T16:02:37;99483.06;;;9.32;83.51
2675;BME280;1347;42.122;24.746;2022-12-24T16:05:34;99488.09;;;9.30;83.89
2675;BME280;1347;42.122;24.746;2022-12-24T16:08:17;99494.44;;;9.34;83.44
2675;BME280;1347;42.122;24.746;2022-12-24T16:10:48;99505.84;;;9.40;82.70
2675;BME280;1347;42.122;24.746;2022-12-24T16:13:19;99509.16;;;9.49;82.57
2675;BME280;1347;42.122;24.746;2022-12-24T16:15:51;99516.16;;;9.46;82.42
2675;BME280;1347;42.122;24.746;2022-12-24T16:18:24;99518.03;;;9.42;82.80
2675;BME280;1347;42.122;24.746;2022-12-24T16:20:52;99520.75;;;9.42;82.54
2675;BME280;1347;42.122;24.746;2022-12-24T16:23:22;99522.63;;;9.38;82.90
2675;BME280;1347;42.122;24.746;2022-12-24T16:25:50;99535.31;;;9.46;82.19
2675;BME280;1347;42.122;24.746;2022-12-24T16:28:18;99534.66;;;9.53;81.99
2675;BME280;1347;42.122;24.746;2022-12-24T16:30:46;99536.25;;;9.54;82.06
2675;BME280;1347;42.122;24.746;2022-12-24T16:33:16;99538.63;;;9.55;81.65
2675;BME280;1347;42.122;24.746;2022-12-24T16:35:45;99542.16;;;9.56;81.88
2675;BME280;1347;42.122;24.746;2022-12-24T16:38:12;99544.94;;;9.59;82.45
2675;BME280;1347;42.122;24.746;2022-12-24T16:40:39;99554.38;;;9.62;82.43
2675;BME280;1347;42.122;24.746;2022-12-24T16:43:06;99550.84;;;9.62;82.77
2675;BME280;1347;42.122;24.746;2022-12-24T16:45:50;99562.16;;;9.60;83.12
2675;BME280;1347;42.122;24.746;2022-12-24T16:48:21;99568.72;;;9.55;83.61
2675;BME280;1347;42.122;24.746;2022-12-24T16:50:49;99568.78;;;9.59;84.98
2675;BME280;1347;42.122;24.746;2022-12-24T16:53:17;99565.22;;;9.58;86.02
2675;BME280;1347;42.122;24.746;2022-12-24T16:55:45;99570.91;;;9.69;88.05
2675;BME280;1347;42.122;24.746;2022-12-24T16:58:15;99584.44;;;9.81;89.18
2675;BME280;1347;42.122;24.746;2022-12-24T17:00:43;99573.63;;;9.88;91.28
2675;BME280;1347;42.122;24.746;2022-12-24T17:03:11;99580.44;;;9.98;92.35
2675;BME280;1347;42.122;24.746;2022-12-24T17:05:39;99579.72;;;10.01;94.08
2675;BME280;1347;42.122;24.746;2022-12-24T17:08:07;99582.53;;;10.05;95.91
2675;BME280;1347;42.122;24.746;2022-12-24T17:10:34;99588.44;;;10.07;98.09
2675;BME280;1347;42.122;24.746;2022-12-24T17:13:01;99583.03;;;10.10;98.65
2675;BME280;1347;42.122;24.746;2022-12-24T17:15:28;99579.13;;;10.11;98.33
2675;BME280;1347;42.122;24.746;2022-12-24T17:17:55;99580.44;;;10.17;98.53
2675;BME280;1347;42.122;24.746;2022-12-24T17:20:22;99582.00;;;10.18;98.55
2675;BME280;1347;42.122;24.746;2022-12-24T17:22:51;99580.72;;;10.12;99.43
2675;BME280;1347;42.122;24.746;2022-12-24T17:25:18;99575.66;;;10.14;98.96
2675;BME280;1347;42.122;24.746;2022-12-24T17:27:44;99581.88;;;10.11;98.50
2675;BME280;1347;42.122;24.746;2022-12-24T17:30:12;99583.81;;;10.11;99.00
2675;BME280;1347;42.122;24.746;2022-12-24T17:32:40;99576.03;;;10.13;97.88
2675;BME280;1347;42.122;24.746;2022-12-24T17:35:08;99580.34;;;10.14;98.42
2675;BME280;1347;42.122;24.746;2022-12-24T17:37:35;99575.38;;;10.19;96.74
2675;BME280;1347;42.122;24.746;2022-12-24T17:40:04;99580.50;;;10.21;96.67
2675;BME280;1347;42.122;24.746;2022-12-24T17:42:31;99577.84;;;10.24;96.29
2675;BME280;1347;42.122;24.746;2022-12-24T17:44:58;99583.34;;;10.28;96.37
2675;BME280;1347;42.122;24.746;2022-12-24T17:47:25;99583.06;;;10.33;96.25
2675;BME280;1347;42.122;24.746;2022-12-24T17:49:52;99575.69;;;10.37;96.08
2675;BME280;1347;42.122;24.746;2022-12-24T17:52:19;99574.03;;;10.32;96.05
2675;BME280;1347;42.122;24.746;2022-12-24T17:54:46;99584.94;;;10.29;96.19
2675;BME280;1347;42.122;24.746;2022-12-24T17:57:14;99582.19;;;10.29;96.63
2675;BME280;1347;42.122;24.746;2022-12-24T17:59:41;99576.41;;;10.34;96.06
2675;BME280;1347;42.122;24.746;2022-12-24T18:02:10;99576.84;;;10.36;95.80
2675;BME280;1347;42.122;24.746;2022-12-24T18:04:37;99575.63;;;10.33;96.48
2675;BME280;1347;42.122;24.746;2022-12-24T18:07:04;99571.63;;;10.27;96.87
2675;BME280;1347;42.122;24.746;2022-12-24T18:09:31;99573.97;;;10.29;97.00
2675;BME280;1347;42.122;24.746;2022-12-24T18:11:57;99575.63;;;10.33;96.52
2675;BME280;1347;42.122;24.746;2022-12-24T18:14:26;99576.84;;;10.36;97.00
2675;BME280;1347;42.122;24.746;2022-12-24T18:16:53;99574.59;;;10.42;97.20
2675;BME280;1347;42.122;24.746;2022-12-24T18:19:20;99576.16;;;10.43;97.47
2675;BME280;1347;42.122;24.746;2022-12-24T18:21:47;99585.19;;;10.43;97.82
2675;BME280;1347;42.122;24.746;2022-12-24T18:24:14;99580.44;;;10.40;98.13
2675;BME280;1347;42.122;24.746;2022-12-24T18:26:42;99591.03;;;10.42;98.45
2675;BME280;1347;42.122;24.746;2022-12-24T18:29:10;99599.56;;;10.37;99.17
2675;BME280;1347;42.122;24.746;2022-12-24T18:31:39;99610.09;;;10.35;99.34
2675;BME280;1347;42.122;24.746;2022-12-24T18:34:09;99611.25;;;10.33;100.00
2675;BME280;1347;42.122;24.746;2022-12-24T18:36:36;99609.38;;;10.38;99.50
2675;BME280;1347;42.122;24.746;2022-12-24T18:39:03;99612.13;;;10.38;99.67
2675;BME280;1347;42.122;24.746;2022-12-24T18:41:31;99606.56;;;10.34;99.89
2675;BME280;1347;42.122;24.746;2022-12-24T18:43:58;99602.97;;;10.30;100.00
2675;BME280;1347;42.122;24.746;2022-12-24T18:46:26;99606.44;;;10.27;100.00
2675;BME280;1347;42.122;24.746;2022-12-24T18:48:56;99612.34;;;10.29;100.00
2675;BME280;1347;42.122;24.746;2022-12-24T18:51:27;99617.09;;;10.32;100.00
2675;BME280;1347;42.122;24.746;2022-12-24T18:53:55;99624.22;;;10.37;99.53
2675;BME280;1347;42.122;24.746;2022-12-24T18:56:23;99618.00;;;10.40;97.92
2675;BME280;1347;42.122;24.746;2022-12-24T18:58:52;99618.38;;;10.38;98.38
2675;BME280;1347;42.122;24.746;2022-12-24T19:01:20;99626.03;;;10.52;96.85
2675;BME280;1347;42.122;24.746;2022-12-24T19:03:47;99618.72;;;10.59;96.11
2675;BME280;1347;42.122;24.746;2022-12-24T19:06:16;99626.72;;;10.68;95.76
2675;BME280;1347;42.122;24.746;2022-12-24T19:08:43;99627.38;;;10.61;96.01
2675;BME280;1347;42.122;24.746;2022-12-24T19:11:11;99622.31;;;10.63;95.67
2675;BME280;1347;42.122;24.746;2022-12-24T19:13:38;99628.97;;;10.62;96.78
2675;BME280;1347;42.122;24.746;2022-12-24T19:16:06;99627.34;;;10.58;96.83
2675;BME280;1347;42.122;24.746;2022-12-24T19:18:33;99621.34;;;10.52;97.23
2675;BME280;1347;42.122;24.746;2022-12-24T19:21:03;99623.25;;;10.48;97.02
2675;BME280;1347;42.122;24.746;2022-12-24T19:23:32;99623.19;;;10.45;97.31
2675;BME280;1347;42.122;24.746;2022-12-24T19:25:59;99627.00;;;10.40;98.12
2675;BME280;1347;42.122;24.746;2022-12-24T19:28:28;99637.19;;;10.40;98.17
2675;BME280;1347;42.122;24.746;2022-12-24T19:30:55;99634.44;;;10.40;97.91
2675;BME280;1347;42.122;24.746;2022-12-24T19:33:27;99619.91;;;10.36;98.42
2675;BME280;1347;42.122;24.746;2022-12-24T19:35:54;99624.22;;;10.37;98.04
2675;BME280;1347;42.122;24.746;2022-12-24T19:38:20;99637.13;;;10.36;98.46
2675;BME280;1347;42.122;24.746;2022-12-24T19:40:49;99629.72;;;10.37;98.10
2675;BME280;1347;42.122;24.746;2022-12-24T19:43:16;99637.94;;;10.37;97.19
2675;BME280;1347;42.122;24.746;2022-12-24T19:45:42;99638.47;;;10.46;96.49
2675;BME280;1347;42.122;24.746;2022-12-24T19:48:09;99649.13;;;10.51;95.74
2675;BME280;1347;42.122;24.746;2022-12-24T19:50:36;99644.44;;;10.51;94.88
2675;BME280;1347;42.122;24.746;2022-12-24T19:53:03;99625.75;;;10.57;95.36
2675;BME280;1347;42.122;24.746;2022-12-24T19:55:30;99622.66;;;10.58;94.27
2675;BME280;1347;42.122;24.746;2022-12-24T19:57:58;99621.06;;;10.57;94.44
2675;BME280;1347;42.122;24.746;2022-12-24T20:00:25;99628.59;;;10.64;93.85
2675;BME280;1347;42.122;24.746;2022-12-24T20:02:52;99624.75;;;10.68;93.06
2675;BME280;1347;42.122;24.746;2022-12-24T20:05:19;99640.97;;;10.77;91.93
2675;BME280;1347;42.122;24.746;2022-12-24T20:07:46;99652.41;;;10.83;91.15
2675;BME280;1347;42.122;24.746;2022-12-24T20:10:13;99643.47;;;10.89;90.61
2675;BME280;1347;42.122;24.746;2022-12-24T20:12:40;99666.22;;;10.90;90.82
2675;BME280;1347;42.122;24.746;2022-12-24T20:15:09;99674.94;;;10.95;90.54
2675;BME280;1347;42.122;24.746;2022-12-24T20:17:36;99681.75;;;11.05;90.07
2675;BME280;1347;42.122;24.746;2022-12-24T20:20:04;99695.03;;;11.03;90.61
2675;BME280;1347;42.122;24.746;2022-12-24T20:22:31;99687.84;;;10.95;91.36
2675;BME280;1347;42.122;24.746;2022-12-24T20:24:58;99680.06;;;10.97;91.56
2675;BME280;1347;42.122;24.746;2022-12-24T20:27:25;99682.00;;;10.96;92.19
2675;BME280;1347;42.122;24.746;2022-12-24T20:29:52;99674.56;;;10.97;92.83
2675;BME280;1347;42.122;24.746;2022-12-24T20:32:21;99698.75;;;10.91;92.70
2675;BME280;1347;42.122;24.746;2022-12-24T20:34:48;99705.81;;;10.92;93.65
2675;BME280;1347;42.122;24.746;2022-12-24T20:37:14;99712.03;;;10.89;93.81
2675;BME280;1347;42.122;24.746;2022-12-24T20:39:41;99728.94;;;10.91;94.34
2675;BME280;1347;42.122;24.746;2022-12-24T20:42:09;99722.28;;;10.92;94.93
2675;BME280;1347;42.122;24.746;2022-12-24T20:44:36;99727.28;;;10.87;95.46
2675;BME280;1347;42.122;24.746;2022-12-24T20:47:03;99719.31;;;10.78;96.83
2675;BME280;1347;42.122;24.746;2022-12-24T20:49:31;99735.38;;;10.80;96.76
2675;BME280;1347;42.122;24.746;2022-12-24T20:51:58;99735.25;;;10.73;98.00
2675;BME280;1347;42.122;24.746;2022-12-24T20:54:25;99733.06;;;10.82;97.49
2675;BME280;1347;42.122;24.746;2022-12-24T20:56:52;99740.22;;;10.86;97.72
2675;BME280;1347;42.122;24.746;2022-12-24T20:59:19;99726.50;;;10.86;98.43
2675;BME280;1347;42.122;24.746;2022-12-24T21:01:46;99722.25;;;10.89;97.23
2675;BME280;1347;42.122;24.746;2022-12-24T21:04:13;99713.69;;;10.94;96.94
2675;BME280;1347;42.122;24.746;2022-12-24T21:06:42;99717.22;;;10.94;97.94